sensor_id;sensor_type;location;lat;lon;timestamp;pressure;altitude;pressure_sealevel;temperature;humidity
61324;BME280;47203;48.428;11.974;2023-04-30T00:01:04;96983.91;;;17.05;45.79
61324;BME280;47203;48.428;11.974;2023-04-30T00:03:12;96988.44;;;17.05;45.62
61324;BME280;47203;48.428;11.974;2023-04-30T00:05:17;96983.13;;;17.05;46.05
61324;BME280;47203;48.428;11.974;2023-04-30T00:07:22;96978.09;;;17.03;45.84
61324;BME280;47203;48.428;11.974;2023-04-30T00:09:27;96986.09;;;17.03;45.98
61324;BME280;47203;48.428;11.974;2023-04-30T00:11:32;96980.00;;;17.03;46.12
61324;BME280;47203;48.428;11.974;2023-04-30T00:13:37;96984.50;;;17.02;45.99
61324;BME280;47203;48.428;11.974;2023-04-30T00:15:43;96981.38;;;17.00;45.99
61324;BME280;47203;48.428;11.974;2023-04-30T00:17:47;96993.69;;;16.96;45.74
61324;BME280;47203;48.428;11.974;2023-04-30T00:19:57;96989.25;;;16.91;46.24
61324;BME280;47203;48.428;11.974;2023-04-30T00:22:02;96988.28;;;16.87;46.24
61324;BME280;47203;48.428;11.974;2023-04-30T00:24:07;96991.19;;;16.86;45.99
61324;BME280;47203;48.428;11.974;2023-04-30T00:26:11;96985.13;;;16.85;46.31
61324;BME280;47203;48.428;11.974;2023-04-30T00:28:20;96991.50;;;16.84;46.08
61324;BME280;47203;48.428;11.974;2023-04-30T00:30:25;96989.91;;;16.83;46.45
61324;BME280;47203;48.428;11.974;2023-04-30T00:32:30;96991.03;;;16.82;46.30
61324;BME280;47203;48.428;11.974;2023-04-30T00:34:35;96984.13;;;16.81;46.12
61324;BME280;47203;48.428;11.974;2023-04-30T00:36:43;96986.78;;;16.81;46.66
61324;BME280;47203;48.428;11.974;2023-04-30T00:38:47;96987.88;;;16.80;46.65
61324;BME280;47203;48.428;11.974;2023-04-30T00:40:52;96985.19;;;16.80;46.23
61324;BME280;47203;48.428;11.974;2023-04-30T00:42:57;96988.94;;;16.79;46.61
61324;BME280;47203;48.428;11.974;2023-04-30T00:45:05;96986.00;;;16.81;46.60
61324;BME280;47203;48.428;11.974;2023-04-30T00:47:10;96981.47;;;16.81;46.33
61324;BME280;47203;48.428;11.974;2023-04-30T00:49:15;96980.69;;;16.81;46.41
61324;BME280;47203;48.428;11.974;2023-04-30T00:51:20;96983.06;;;16.82;46.79
61324;BME280;47203;48.428;11.974;2023-04-30T00:53:28;96981.78;;;16.80;46.62
61324;BME280;47203;48.428;11.974;2023-04-30T00:55:33;96984.72;;;16.78;46.68
61324;BME280;47203;48.428;11.974;2023-04-30T00:57:38;96986.28;;;16.79;46.68
61324;BME280;47203;48.428;11.974;2023-04-30T00:59:44;96990.81;;;16.79;46.92
61324;BME280;47203;48.428;11.974;2023-04-30T01:01:50;96990.81;;;16.79;46.73
61324;BME280;47203;48.428;11.974;2023-04-30T01:03:54;96997.72;;;16.80;46.71
61324;BME280;47203;48.428;11.974;2023-04-30T01:05:59;96993.97;;;16.81;46.86
61324;BME280;47203;48.428;11.974;2023-04-30T01:08:04;96996.34;;;16.82;46.78
61324;BME280;47203;48.428;11.974;2023-04-30T01:10:13;96994.75;;;16.81;47.07
61324;BME280;47203;48.428;11.974;2023-04-30T01:12:22;96997.72;;;16.80;47.07
61324;BME280;47203;48.428;11.974;2023-04-30T01:14:42;96998.31;;;16.77;47.34
61324;BME280;47203;48.428;11.974;2023-04-30T01:16:53;97002.53;;;16.78;47.33
61324;BME280;47203;48.428;11.974;2023-04-30T01:19:04;97003.63;;;16.77;47.23
61324;BME280;47203;48.428;11.974;2023-04-30T01:21:14;97006.28;;;16.77;47.21
61324;BME280;47203;48.428;11.974;2023-04-30T01:23:32;96999.69;;;16.74;47.23
61324;BME280;47203;48.428;11.974;2023-04-30T01:25:52;97002.66;;;16.72;47.52
61324;BME280;47203;48.428;11.974;2023-04-30T01:28:05;97002.94;;;16.71;47.20
61324;BME280;47203;48.428;11.974;2023-04-30T01:30:12;97012.00;;;16.70;46.98
61324;BME280;47203;48.428;11.974;2023-04-30T01:32:17;97006.97;;;16.68;47.41
61324;BME280;47203;48.428;11.974;2023-04-30T01:34:23;97009.63;;;16.68;46.95
61324;BME280;47203;48.428;11.974;2023-04-30T01:36:38;97012.59;;;16.67;47.65
61324;BME280;47203;48.428;11.974;2023-04-30T01:38:55;97012.88;;;16.65;47.25
61324;BME280;47203;48.428;11.974;2023-04-30T01:41:09;97015.84;;;16.64;47.38
61324;BME280;47203;48.428;11.974;2023-04-30T01:43:25;97023.03;;;16.63;47.60
61324;BME280;47203;48.428;11.974;2023-04-30T01:45:47;97023.31;;;16.62;47.45
61324;BME280;47203;48.428;11.974;2023-04-30T01:48:03;97028.44;;;16.58;47.67
61324;BME280;47203;48.428;11.974;2023-04-30T01:50:16;97030.59;;;16.56;47.58
61324;BME280;47203;48.428;11.974;2023-04-30T01:52:36;97036.22;;;16.54;47.45
61324;BME280;47203;48.428;11.974;2023-04-30T01:54:54;97031.97;;;16.53;47.66
61324;BME280;47203;48.428;11.974;2023-04-30T01:57:04;97029.31;;;16.53;47.73
61324;BME280;47203;48.428;11.974;2023-04-30T01:59:13;97033.88;;;16.53;47.42
61324;BME280;47203;48.428;11.974;2023-04-30T02:01:27;97034.94;;;16.52;47.63
61324;BME280;47203;48.428;11.974;2023-04-30T02:03:33;97025.38;;;16.51;47.80
61324;BME280;47203;48.428;11.974;2023-04-30T02:05:38;97026.16;;;16.51;47.58
61324;BME280;47203;48.428;11.974;2023-04-30T02:07:44;97024.59;;;16.50;47.57
61324;BME280;47203;48.428;11.974;2023-04-30T02:09:50;97033.66;;;16.49;47.54
61324;BME280;47203;48.428;11.974;2023-04-30T02:11:55;97030.50;;;16.47;47.82
61324;BME280;47203;48.428;11.974;2023-04-30T02:14:00;97032.34;;;16.47;47.75
61324;BME280;47203;48.428;11.974;2023-04-30T02:16:08;97030.81;;;16.46;47.70
61324;BME280;47203;48.428;11.974;2023-04-30T02:18:13;97028.44;;;16.44;48.03
61324;BME280;47203;48.428;11.974;2023-04-30T02:20:18;97035.59;;;16.44;47.58
61324;BME280;47203;48.428;11.974;2023-04-30T02:22:23;97042.00;;;16.43;47.77
61324;BME280;47203;48.428;11.974;2023-04-30T02:24:28;97032.47;;;16.42;47.92
61324;BME280;47203;48.428;11.974;2023-04-30T02:26:34;97035.59;;;16.44;47.64
61324;BME280;47203;48.428;11.974;2023-04-30T02:28:38;97037.50;;;16.43;47.89
61324;BME280;47203;48.428;11.974;2023-04-30T02:30:44;97037.50;;;16.43;47.70
61324;BME280;47203;48.428;11.974;2023-04-30T02:32:53;97039.63;;;16.41;47.99
61324;BME280;47203;48.428;11.974;2023-04-30T02:34:58;97043.09;;;16.42;47.74
61324;BME280;47203;48.428;11.974;2023-04-30T02:37:03;97044.16;;;16.40;47.95
61324;BME280;47203;48.428;11.974;2023-04-30T02:39:08;97053.72;;;16.42;48.14
61324;BME280;47203;48.428;11.974;2023-04-30T02:41:13;97046.03;;;16.40;47.72
61324;BME280;47203;48.428;11.974;2023-04-30T02:43:18;97049.47;;;16.40;47.92
61324;BME280;47203;48.428;11.974;2023-04-30T02:45:22;97041.50;;;16.40;48.08
61324;BME280;47203;48.428;11.974;2023-04-30T02:47:27;97041.81;;;16.39;47.86
61324;BME280;47203;48.428;11.974;2023-04-30T02:49:35;97039.44;;;16.37;47.74
61324;BME280;47203;48.428;11.974;2023-04-30T02:51:40;97038.66;;;16.37;47.74
61324;BME280;47203;48.428;11.974;2023-04-30T02:53:45;97036.31;;;16.35;47.98
61324;BME280;47203;48.428;11.974;2023-04-30T02:55:50;97032.06;;;16.34;47.85
61324;BME280;47203;48.428;11.974;2023-04-30T02:57:55;97042.69;;;16.34;48.12
61324;BME280;47203;48.428;11.974;2023-04-30T03:00:00;97034.72;;;16.34;47.98
61324;BME280;47203;48.428;11.974;2023-04-30T03:02:05;97043.47;;;16.35;47.65
61324;BME280;47203;48.428;11.974;2023-04-30T03:04:09;97040.03;;;16.34;47.64
61324;BME280;47203;48.428;11.974;2023-04-30T03:06:17;97045.34;;;16.34;48.02
61324;BME280;47203;48.428;11.974;2023-04-30T03:08:22;97041.88;;;16.34;48.02
61324;BME280;47203;48.428;11.974;2023-04-30T03:10:27;97039.53;;;16.32;47.83
61324;BME280;47203;48.428;11.974;2023-04-30T03:12:32;97047.19;;;16.34;47.88
61324;BME280;47203;48.428;11.974;2023-04-30T03:14:37;97047.50;;;16.32;47.78
61324;BME280;47203;48.428;11.974;2023-04-30T03:16:42;97045.94;;;16.31;47.91
61324;BME280;47203;48.428;11.974;2023-04-30T03:18:48;97052.03;;;16.32;47.99
61324;BME280;47203;48.428;11.974;2023-04-30T03:20:52;97051.53;;;16.30;48.18
61324;BME280;47203;48.428;11.974;2023-04-30T03:23:00;97049.19;;;16.28;47.85
61324;BME280;47203;48.428;11.974;2023-04-30T03:25:06;97047.31;;;16.29;48.13
61324;BME280;47203;48.428;11.974;2023-04-30T03:27:11;97050.25;;;16.27;48.02
61324;BME280;47203;48.428;11.974;2023-04-30T03:29:17;97044.94;;;16.27;48.00
61324;BME280;47203;48.428;11.974;2023-04-30T03:31:22;97046.81;;;16.27;48.21
61324;BME280;47203;48.428;11.974;2023-04-30T03:33:27;97050.53;;;16.26;47.84
61324;BME280;47203;48.428;11.974;2023-04-30T03:35:32;97047.88;;;16.26;48.08
61324;BME280;47203;48.428;11.974;2023-04-30T03:37:37;97041.78;;;16.25;48.14
61324;BME280;47203;48.428;11.974;2023-04-30T03:39:45;97041.00;;;16.25;48.39
61324;BME280;47203;48.428;11.974;2023-04-30T03:41:50;97041.78;;;16.25;48.38
61324;BME280;47203;48.428;11.974;2023-04-30T03:43:54;97044.16;;;16.27;48.09
61324;BME280;47203;48.428;11.974;2023-04-30T03:45:59;97044.16;;;16.27;48.00
61324;BME280;47203;48.428;11.974;2023-04-30T03:48:04;97032.72;;;16.26;48.41
61324;BME280;47203;48.428;11.974;2023-04-30T03:50:10;97041.78;;;16.25;48.22
61324;BME280;47203;48.428;11.974;2023-04-30T03:52:15;97035.69;;;16.25;47.96
61324;BME280;47203;48.428;11.974;2023-04-30T03:54:20;97039.41;;;16.23;48.22
61324;BME280;47203;48.428;11.974;2023-04-30T03:56:27;97033.03;;;16.25;48.53
61324;BME280;47203;48.428;11.974;2023-04-30T03:58:32;97037.03;;;16.22;48.26
61324;BME280;47203;48.428;11.974;2023-04-30T04:00:39;97029.38;;;16.20;48.25
61324;BME280;47203;48.428;11.974;2023-04-30T04:02:44;97040.28;;;16.19;48.33
61324;BME280;47203;48.428;11.974;2023-04-30T04:04:49;97034.50;;;16.17;48.33
61324;BME280;47203;48.428;11.974;2023-04-30T04:06:54;97037.44;;;16.15;48.29
61324;BME280;47203;48.428;11.974;2023-04-30T04:08:59;97036.63;;;16.15;48.22
61324;BME280;47203;48.428;11.974;2023-04-30T04:11:05;97030.84;;;16.13;48.36
61324;BME280;47203;48.428;11.974;2023-04-30T04:13:12;97022.09;;;16.12;48.55
61324;BME280;47203;48.428;11.974;2023-04-30T04:15:17;97032.22;;;16.10;48.49
61324;BME280;47203;48.428;11.974;2023-04-30T04:17:22;97030.66;;;16.09;48.18
61324;BME280;47203;48.428;11.974;2023-04-30T04:19:27;97043.13;;;16.09;48.33
61324;BME280;47203;48.428;11.974;2023-04-30T04:21:32;97038.63;;;16.09;48.49
61324;BME280;47203;48.428;11.974;2023-04-30T04:23:41;97043.41;;;16.07;48.41
61324;BME280;47203;48.428;11.974;2023-04-30T04:25:46;97041.06;;;16.05;48.47
61324;BME280;47203;48.428;11.974;2023-04-30T04:27:53;97042.94;;;16.05;48.15
61324;BME280;47203;48.428;11.974;2023-04-30T04:30:01;97048.53;;;16.03;48.64
61324;BME280;47203;48.428;11.974;2023-04-30T04:32:06;97046.16;;;16.02;48.27
61324;BME280;47203;48.428;11.974;2023-04-30T04:34:14;97048.81;;;16.02;48.15
61324;BME280;47203;48.428;11.974;2023-04-30T04:36:20;97049.91;;;16.01;48.42
61324;BME280;47203;48.428;11.974;2023-04-30T04:38:25;97051.47;;;16.02;48.40
61324;BME280;47203;48.428;11.974;2023-04-30T04:40:29;97057.88;;;16.01;48.26
61324;BME280;47203;48.428;11.974;2023-04-30T04:42:36;97061.28;;;16.01;48.23
61324;BME280;47203;48.428;11.974;2023-04-30T04:44:41;97059.75;;;16.00;48.21
61324;BME280;47203;48.428;11.974;2023-04-30T04:46:50;97058.44;;;15.98;48.80
61324;BME280;47203;48.428;11.974;2023-04-30T04:48:57;97057.63;;;15.97;48.30
61324;BME280;47203;48.428;11.974;2023-04-30T04:51:03;97058.75;;;15.96;48.50
61324;BME280;47203;48.428;11.974;2023-04-30T04:53:08;97068.25;;;15.97;48.32
61324;BME280;47203;48.428;11.974;2023-04-30T04:55:14;97062.16;;;15.97;48.48
61324;BME280;47203;48.428;11.974;2023-04-30T04:57:19;97064.03;;;15.96;48.51
61324;BME280;47203;48.428;11.974;2023-04-30T04:59:24;97059.50;;;15.97;48.40
61324;BME280;47203;48.428;11.974;2023-04-30T05:01:29;97067.47;;;15.97;48.50
61324;BME280;47203;48.428;11.974;2023-04-30T05:03:37;97058.75;;;15.96;48.81
61324;BME280;47203;48.428;11.974;2023-04-30T05:05:42;97055.56;;;15.94;48.92
61324;BME280;47203;48.428;11.974;2023-04-30T05:07:47;97064.03;;;15.96;48.75
61324;BME280;47203;48.428;11.974;2023-04-30T05:09:53;97064.81;;;15.97;48.80
61324;BME280;47203;48.428;11.974;2023-04-30T05:11:58;97067.19;;;15.98;48.73
61324;BME280;47203;48.428;11.974;2023-04-30T05:14:03;97073.28;;;15.99;49.07
61324;BME280;47203;48.428;11.974;2023-04-30T05:16:08;97075.94;;;15.99;48.84
61324;BME280;47203;48.428;11.974;2023-04-30T05:18:13;97073.78;;;16.01;48.80
61324;BME280;47203;48.428;11.974;2023-04-30T05:20:21;97071.91;;;16.01;48.84
61324;BME280;47203;48.428;11.974;2023-04-30T05:22:26;97070.84;;;16.02;49.04
61324;BME280;47203;48.428;11.974;2023-04-30T05:24:32;97075.09;;;16.03;48.73
61324;BME280;47203;48.428;11.974;2023-04-30T05:26:37;97081.16;;;16.04;49.24
61324;BME280;47203;48.428;11.974;2023-04-30T05:28:42;97077.44;;;16.05;48.89
61324;BME280;47203;48.428;11.974;2023-04-30T05:30:47;97071.03;;;16.06;49.17
61324;BME280;47203;48.428;11.974;2023-04-30T05:32:51;97077.94;;;16.07;49.32
61324;BME280;47203;48.428;11.974;2023-04-30T05:34:57;97075.28;;;16.07;49.05
61324;BME280;47203;48.428;11.974;2023-04-30T05:37:05;97084.53;;;16.10;49.14
61324;BME280;47203;48.428;11.974;2023-04-30T05:39:10;97083.16;;;16.12;49.39
61324;BME280;47203;48.428;11.974;2023-04-30T05:41:15;97088.97;;;16.14;49.40
61324;BME280;47203;48.428;11.974;2023-04-30T05:43:20;97092.91;;;16.17;49.11
61324;BME280;47203;48.428;11.974;2023-04-30T05:45:24;97092.34;;;16.20;49.50
61324;BME280;47203;48.428;11.974;2023-04-30T05:47:29;97085.66;;;16.22;49.44
61324;BME280;47203;48.428;11.974;2023-04-30T05:49:34;97083.50;;;16.25;49.53
61324;BME280;47203;48.428;11.974;2023-04-30T05:51:39;97086.66;;;16.27;49.08
61324;BME280;47203;48.428;11.974;2023-04-30T05:53:47;97089.78;;;16.29;49.18
61324;BME280;47203;48.428;11.974;2023-04-30T05:55:52;97081.53;;;16.30;49.50
61324;BME280;47203;48.428;11.974;2023-04-30T05:57:56;97087.84;;;16.34;49.36
61324;BME280;47203;48.428;11.974;2023-04-30T06:00:01;97086.47;;;16.37;49.51
61324;BME280;47203;48.428;11.974;2023-04-30T06:02:12;97087.75;;;16.39;49.44
61324;BME280;47203;48.428;11.974;2023-04-30T06:04:17;97095.13;;;16.43;49.13
61324;BME280;47203;48.428;11.974;2023-04-30T06:06:22;97089.53;;;16.44;49.49
61324;BME280;47203;48.428;11.974;2023-04-30T06:08:28;97093.47;;;16.47;49.40
61324;BME280;47203;48.428;11.974;2023-04-30T06:10:36;97090.50;;;16.48;49.16
61324;BME280;47203;48.428;11.974;2023-04-30T06:12:41;97092.88;;;16.50;49.37
61324;BME280;47203;48.428;11.974;2023-04-30T06:14:46;97096.03;;;16.52;49.16
61324;BME280;47203;48.428;11.974;2023-04-30T06:16:51;97100.28;;;16.53;49.15
61324;BME280;47203;48.428;11.974;2023-04-30T06:18:56;97094.69;;;16.54;49.23
61324;BME280;47203;48.428;11.974;2023-04-30T06:21:01;97097.03;;;16.56;49.25
61324;BME280;47203;48.428;11.974;2023-04-30T06:23:06;97094.38;;;16.56;49.47
61324;BME280;47203;48.428;11.974;2023-04-30T06:25:11;97089.84;;;16.56;49.06
61324;BME280;47203;48.428;11.974;2023-04-30T06:27:18;97091.44;;;16.57;49.20
61324;BME280;47203;48.428;11.974;2023-04-30T06:29:24;97088.47;;;16.59;49.14
61324;BME280;47203;48.428;11.974;2023-04-30T06:31:29;97095.34;;;16.60;49.23
61324;BME280;47203;48.428;11.974;2023-04-30T06:33:34;97090.53;;;16.62;49.10
61324;BME280;47203;48.428;11.974;2023-04-30T06:35:38;97087.28;;;16.65;49.49
61324;BME280;47203;48.428;11.974;2023-04-30T06:37:44;97091.25;;;16.68;49.37
61324;BME280;47203;48.428;11.974;2023-04-30T06:39:48;97092.50;;;16.70;49.08
61324;BME280;47203;48.428;11.974;2023-04-30T06:41:54;97085.81;;;16.73;49.43
61324;BME280;47203;48.428;11.974;2023-04-30T06:44:04;97087.88;;;16.76;49.19
61324;BME280;47203;48.428;11.974;2023-04-30T06:46:09;97095.00;;;16.81;49.25
61324;BME280;47203;48.428;11.974;2023-04-30T06:48:16;97093.28;;;16.85;49.47
61324;BME280;47203;48.428;11.974;2023-04-30T06:50:21;97096.97;;;16.89;48.91
61324;BME280;47203;48.428;11.974;2023-04-30T06:52:25;97089.50;;;16.91;49.16
61324;BME280;47203;48.428;11.974;2023-04-30T06:54:30;97093.44;;;16.93;48.86
61324;BME280;47203;48.428;11.974;2023-04-30T06:56:35;97094.41;;;16.98;48.82
61324;BME280;47203;48.428;11.974;2023-04-30T06:58:40;97090.88;;;17.02;48.78
61324;BME280;47203;48.428;11.974;2023-04-30T07:00:48;97092.94;;;17.05;48.93
61324;BME280;47203;48.428;11.974;2023-04-30T07:02:53;97098.16;;;17.10;48.85
61324;BME280;47203;48.428;11.974;2023-04-30T07:05:00;97103.94;;;17.13;48.82
61324;BME280;47203;48.428;11.974;2023-04-30T07:07:05;97099.31;;;17.18;48.55
61324;BME280;47203;48.428;11.974;2023-04-30T07:09:10;97100.31;;;17.22;48.52
61324;BME280;47203;48.428;11.974;2023-04-30T07:11:16;97095.97;;;17.26;48.58
61324;BME280;47203;48.428;11.974;2023-04-30T07:13:21;97095.06;;;17.31;48.24
61324;BME280;47203;48.428;11.974;2023-04-30T07:15:26;97095.56;;;17.33;48.32
61324;BME280;47203;48.428;11.974;2023-04-30T07:17:33;97093.69;;;17.34;47.89
61324;BME280;47203;48.428;11.974;2023-04-30T07:19:39;97093.09;;;17.37;47.99
61324;BME280;47203;48.428;11.974;2023-04-30T07:21:44;97089.84;;;17.40;48.17
61324;BME280;47203;48.428;11.974;2023-04-30T07:23:49;97092.97;;;17.42;47.58
61324;BME280;47203;48.428;11.974;2023-04-30T07:25:53;97096.63;;;17.46;47.82
61324;BME280;47203;48.428;11.974;2023-04-30T07:27:59;97091.50;;;17.50;47.25
61324;BME280;47203;48.428;11.974;2023-04-30T07:30:05;97091.19;;;17.51;47.45
61324;BME280;47203;48.428;11.974;2023-04-30T07:32:11;97097.00;;;17.53;47.33
61324;BME280;47203;48.428;11.974;2023-04-30T07:34:18;97096.41;;;17.56;47.02
61324;BME280;47203;48.428;11.974;2023-04-30T07:36:23;97093.13;;;17.59;47.05
61324;BME280;47203;48.428;11.974;2023-04-30T07:38:28;97094.41;;;17.62;46.85
61324;BME280;47203;48.428;11.974;2023-04-30T07:40:33;97101.78;;;17.65;47.07
61324;BME280;47203;48.428;11.974;2023-04-30T07:42:38;97096.16;;;17.67;47.10
61324;BME280;47203;48.428;11.974;2023-04-30T07:44:43;97104.34;;;17.70;46.93
61324;BME280;47203;48.428;11.974;2023-04-30T07:46:49;97089.97;;;17.71;46.79
61324;BME280;47203;48.428;11.974;2023-04-30T07:48:54;97090.44;;;17.73;47.02
61324;BME280;47203;48.428;11.974;2023-04-30T07:51:01;97102.38;;;17.76;46.35
61324;BME280;47203;48.428;11.974;2023-04-30T07:53:06;97094.06;;;17.77;46.69
61324;BME280;47203;48.428;11.974;2023-04-30T07:55:12;97097.22;;;17.79;46.62
61324;BME280;47203;48.428;11.974;2023-04-30T07:57:16;97101.47;;;17.80;46.60
61324;BME280;47203;48.428;11.974;2023-04-30T07:59:21;97101.94;;;17.83;46.38
61324;BME280;47203;48.428;11.974;2023-04-30T08:01:26;97095.22;;;17.85;46.48
61324;BME280;47203;48.428;11.974;2023-04-30T08:03:31;97102.13;;;17.86;46.24
61324;BME280;47203;48.428;11.974;2023-04-30T08:05:37;97098.84;;;17.89;46.10
61324;BME280;47203;48.428;11.974;2023-04-30T08:07:45;97100.16;;;17.92;46.42
61324;BME280;47203;48.428;11.974;2023-04-30T08:09:50;97101.41;;;17.94;46.13
61324;BME280;47203;48.428;11.974;2023-04-30T08:11:55;97095.22;;;17.99;46.34
61324;BME280;47203;48.428;11.974;2023-04-30T08:14:00;97105.41;;;18.06;46.52
61324;BME280;47203;48.428;11.974;2023-04-30T08:16:05;97097.03;;;18.12;46.49
61324;BME280;47203;48.428;11.974;2023-04-30T08:18:10;97095.97;;;18.22;46.39
61324;BME280;47203;48.428;11.974;2023-04-30T08:20:16;97098.69;;;18.31;46.41
61324;BME280;47203;48.428;11.974;2023-04-30T08:22:21;97091.84;;;18.39;46.33
61324;BME280;47203;48.428;11.974;2023-04-30T08:24:29;97097.84;;;18.44;46.24
61324;BME280;47203;48.428;11.974;2023-04-30T08:26:34;97096.00;;;18.54;45.94
61324;BME280;47203;48.428;11.974;2023-04-30T08:28:39;97098.22;;;18.60;46.25
61324;BME280;47203;48.428;11.974;2023-04-30T08:30:44;97091.66;;;18.66;46.61
61324;BME280;47203;48.428;11.974;2023-04-30T08:32:49;97090.13;;;18.74;45.99
61324;BME280;47203;48.428;11.974;2023-04-30T08:34:58;97094.22;;;18.80;46.05
61324;BME280;47203;48.428;11.974;2023-04-30T08:37:02;97093.81;;;18.87;45.87
61324;BME280;47203;48.428;11.974;2023-04-30T08:39:07;97082.97;;;18.92;45.92
61324;BME280;47203;48.428;11.974;2023-04-30T08:41:16;97084.44;;;18.98;45.64
61324;BME280;47203;48.428;11.974;2023-04-30T08:43:21;97087.44;;;19.06;45.93
61324;BME280;47203;48.428;11.974;2023-04-30T08:45:27;97092.31;;;19.12;45.42
61324;BME280;47203;48.428;11.974;2023-04-30T08:47:32;97094.34;;;19.15;45.17
61324;BME280;47203;48.428;11.974;2023-04-30T08:49:37;97092.47;;;19.16;44.84
61324;BME280;47203;48.428;11.974;2023-04-30T08:51:42;97090.28;;;19.18;44.93
61324;BME280;47203;48.428;11.974;2023-04-30T08:53:47;97096.22;;;19.15;44.56
61324;BME280;47203;48.428;11.974;2023-04-30T08:55:53;97087.78;;;19.13;44.43
61324;BME280;47203;48.428;11.974;2023-04-30T08:58:01;97086.66;;;19.14;44.43
61324;BME280;47203;48.428;11.974;2023-04-30T09:00:07;97086.34;;;19.15;44.54
61324;BME280;47203;48.428;11.974;2023-04-30T09:02:13;97098.59;;;19.16;44.34
61324;BME280;47203;48.428;11.974;2023-04-30T09:04:17;97094.03;;;19.17;44.46
61324;BME280;47203;48.428;11.974;2023-04-30T09:06:22;97097.50;;;19.17;44.08
61324;BME280;47203;48.428;11.974;2023-04-30T09:08:41;97105.31;;;19.14;43.67
61324;BME280;47203;48.428;11.974;2023-04-30T09:10:46;97094.97;;;19.12;44.11
61324;BME280;47203;48.428;11.974;2023-04-30T09:12:58;97093.25;;;19.08;43.46
61324;BME280;47203;48.428;11.974;2023-04-30T09:15:07;97101.84;;;19.05;43.77
61324;BME280;47203;48.428;11.974;2023-04-30T09:17:20;97094.78;;;19.00;42.75
61324;BME280;47203;48.428;11.974;2023-04-30T09:19:28;97101.53;;;18.97;43.54
61324;BME280;47203;48.428;11.974;2023-04-30T09:21:34;97093.34;;;18.94;43.48
61324;BME280;47203;48.428;11.974;2023-04-30T09:23:53;97100.88;;;18.92;43.61
61324;BME280;47203;48.428;11.974;2023-04-30T09:25:59;97091.28;;;18.91;43.97
61324;BME280;47203;48.428;11.974;2023-04-30T09:28:08;97096.16;;;18.89;43.81
61324;BME280;47203;48.428;11.974;2023-04-30T09:30:29;97091.13;;;18.87;43.07
61324;BME280;47203;48.428;11.974;2023-04-30T09:32:34;97086.41;;;18.84;43.36
61324;BME280;47203;48.428;11.974;2023-04-30T09:34:39;97087.78;;;18.81;43.50
61324;BME280;47203;48.428;11.974;2023-04-30T09:36:54;97083.53;;;18.80;42.99
61324;BME280;47203;48.428;11.974;2023-04-30T09:39:05;97084.66;;;18.79;43.01
61324;BME280;47203;48.428;11.974;2023-04-30T09:41:23;97086.53;;;18.79;42.61
61324;BME280;47203;48.428;11.974;2023-04-30T09:43:29;97079.00;;;18.81;43.12
61324;BME280;47203;48.428;11.974;2023-04-30T09:45:44;97077.13;;;18.81;42.73
61324;BME280;47203;48.428;11.974;2023-04-30T09:47:52;97083.41;;;18.86;43.30
61324;BME280;47203;48.428;11.974;2023-04-30T09:50:19;97082.81;;;18.89;43.47
61324;BME280;47203;48.428;11.974;2023-04-30T09:52:24;97087.09;;;18.98;43.32
61324;BME280;47203;48.428;11.974;2023-04-30T09:54:30;97080.84;;;19.03;43.25
61324;BME280;47203;48.428;11.974;2023-04-30T09:56:37;97080.69;;;19.08;43.07
61324;BME280;47203;48.428;11.974;2023-04-30T09:58:43;97087.28;;;19.11;42.87
61324;BME280;47203;48.428;11.974;2023-04-30T10:00:57;97083.22;;;19.13;42.32
61324;BME280;47203;48.428;11.974;2023-04-30T10:03:06;97090.13;;;19.14;42.58
61324;BME280;47203;48.428;11.974;2023-04-30T10:05:11;97085.56;;;19.15;42.49
61324;BME280;47203;48.428;11.974;2023-04-30T10:07:19;97092.16;;;19.17;42.39
61324;BME280;47203;48.428;11.974;2023-04-30T10:09:25;97088.06;;;19.20;42.43
61324;BME280;47203;48.428;11.974;2023-04-30T10:11:33;97090.91;;;19.24;42.93
61324;BME280;47203;48.428;11.974;2023-04-30T10:13:42;97085.28;;;19.25;42.67
61324;BME280;47203;48.428;11.974;2023-04-30T10:15:51;97089.19;;;19.28;42.64
61324;BME280;47203;48.428;11.974;2023-04-30T10:18:02;97079.31;;;19.28;42.33
61324;BME280;47203;48.428;11.974;2023-04-30T10:20:09;97077.13;;;19.30;42.78
61324;BME280;47203;48.428;11.974;2023-04-30T10:22:15;97079.81;;;19.30;42.53
61324;BME280;47203;48.428;11.974;2023-04-30T10:24:20;97075.56;;;19.29;42.27
61324;BME280;47203;48.428;11.974;2023-04-30T10:26:25;97072.06;;;19.29;42.50
61324;BME280;47203;48.428;11.974;2023-04-30T10:28:32;97070.22;;;19.29;41.79
61324;BME280;47203;48.428;11.974;2023-04-30T10:30:37;97064.06;;;19.29;42.38
61324;BME280;47203;48.428;11.974;2023-04-30T10:32:47;97062.84;;;19.26;41.84
61324;BME280;47203;48.428;11.974;2023-04-30T10:34:58;97060.16;;;19.17;42.30
61324;BME280;47203;48.428;11.974;2023-04-30T10:37:16;97061.25;;;19.16;42.58
61324;BME280;47203;48.428;11.974;2023-04-30T10:39:26;97062.00;;;19.17;42.47
61324;BME280;47203;48.428;11.974;2023-04-30T10:41:31;97058.56;;;19.16;42.48
61324;BME280;47203;48.428;11.974;2023-04-30T10:43:36;97060.47;;;19.16;42.14
61324;BME280;47203;48.428;11.974;2023-04-30T10:45:42;97062.81;;;19.17;42.44
61324;BME280;47203;48.428;11.974;2023-04-30T10:47:48;97060.16;;;19.17;42.26
61324;BME280;47203;48.428;11.974;2023-04-30T10:50:04;97056.38;;;19.18;42.38
61324;BME280;47203;48.428;11.974;2023-04-30T10:52:12;97062.66;;;19.23;42.27
61324;BME280;47203;48.428;11.974;2023-04-30T10:54:24;97057.50;;;19.26;42.13
61324;BME280;47203;48.428;11.974;2023-04-30T10:56:31;97058.44;;;19.30;42.33
61324;BME280;47203;48.428;11.974;2023-04-30T10:58:37;97051.38;;;19.34;42.29
61324;BME280;47203;48.428;11.974;2023-04-30T11:00:50;97059.06;;;19.36;41.90
61324;BME280;47203;48.428;11.974;2023-04-30T11:03:03;97054.22;;;19.38;42.52